Statistiken

Seite 112 von 349 |< · · [109] [110] [111] [112] [113] [114] [115] · · >|

Die meistgelesenen Zitate

Nr. Zitat Pkte. Bew. Aufr. Mails Kom. Datum
5551 Früh schlafen gehn und früh aufstehn schließt ... -0.8744 414 5024 2 0 26.08.05 00:00
5552 Nachher ist jeder klug. ... -0.1664 553 5023 0 16 26.08.05 00:00
5553 Im Kloster Ebrach liegt der Teufel und seine ... -0.9307 404 5023 0 5 26.08.05 00:00
5554 Sag eine Lüge, so hörst du die Wahrheit. ... -0.9080 413 5019 1 2 26.08.05 00:00
5555 Freunde mit dem Mund, Einer auf ein Pfund; ... 0.7431 938 5018 1 0 26.08.05 00:00
5556 Alles steht in Gottes Hand. ... -0.8305 413 5018 0 0 26.08.05 00:00
5557 Geld führt den Krieg. ... -0.8452 420 5016 3 1 26.08.05 00:00
5558 Ein Doktor und ein Bauer wissen mehr denn ... -0.7953 425 5016 1 0 26.08.05 00:00
5559 Sterben und geboren werden Ist des Menschen ... -0.8837 404 5012 0 0 26.08.05 00:00
5560 Hast du gut gekocht, so magst du gut essen. ... -0.9045 419 5011 1 16 26.08.05 00:00
5561 Zum Verlieren ist nichts besser als Vergessen. ... -0.8963 405 5011 0 0 26.08.05 00:00
5562 Journalisten sind die Geburtshelfer und Totengräber ... -0.7767 430 5010 2 0 04.08.05 18:55
5563 Das Barbarische ist für mich ein Verjüngungsmittel. ... -0.9031 423 5010 0 1 03.02.06 09:22
5564 Anschauen macht Liebe, Gelegenheit Diebe. ... -0.8612 418 5007 0 0 26.08.05 00:00
5565 Neid ist des Glücks Gefährte. ... -0.8832 411 5007 0 0 26.08.05 00:00
5566 Laß den Storch in seinem Nest zufrieden. ... -0.7629 426 5005 0 1 26.08.05 00:00
5567 Jeder Arbeiter ist seines Lohnes wert. ... -0.9093 408 5005 0 0 26.08.05 00:00
5568 Wer Rosen nicht im Sommer bricht, der bricht ... -0.8908 412 5004 0 0 26.08.05 00:00
5569 Die Gans geht so lange zur Küche, bis sie ... -0.9309 405 5001 1 3 26.08.05 00:00
5570 Der Mann taub und die Frau stumm gibt die besten Ehen. ... -0.8927 410 4998 4 0 26.08.05 00:00
5571 Es ist, als trüge ich eine Notenpresse mit ... -0.8337 433 4996 2 7 08.03.07 12:47
5572 Wer die Eltern ehrt, den ehrt Gott wieder. ... 0.9390 1132 4995 0 0 26.08.05 00:00
5573 Ordnung erhält die Welt. ... -0.4172 489 4995 0 1 26.08.05 00:00
5574 Das Wasser ist am besten an der Quelle. ... -0.8637 411 4992 1 0 26.08.05 00:00
5575 Geld ist Königin, Tugend und Kunst ihre ... -0.9163 406 4992 0 0 26.08.05 00:00
5576 Wo haben wir zusammen die Schweine gehütet? ... -0.8547 413 4991 0 0 26.08.05 00:00
5577 Die Kunst bedarf des Glücks, und das Glück ... -0.8995 408 4988 0 0 26.08.05 00:00
5578 Wer leicht traut, wird leicht betrogen. ... -0.7407 428 4987 2 0 26.08.05 00:00
5579 Pfaffenknechte essen im Schweiß; Von Arbeit ... -0.9314 408 4987 0 0 26.08.05 00:00
5580 Weise Leute haben ihren Mund im Herzen. ... -0.8488 410 4986 1 3 26.08.05 00:00
5581 Ein Vater ernährt eher zehn Kinder als zehn ... -0.8780 410 4986 1 0 26.08.05 00:00
5582 Viele können einem helfen. ... -0.9027 401 4986 0 0 26.08.05 00:00
5583 Frauenfleisch ist leichter zu bekommen denn Kalbfleisch. ... 0.1262 634 4984 1 0 26.08.05 00:00
5584 Neid ist des Narren Leid. ... -0.8613 411 4983 26 0 26.08.05 00:00
5585 Titel ohne Mittel sind wie ein Haus ohne Dach. ... -0.8527 414 4983 0 0 26.08.05 00:00
5586 Das Glück ist kugelrund, Es trifft wohl ... -0.9493 414 4983 0 0 26.08.05 00:00
5587 Katzenkinder lernen wohl mausen. ... -0.9227 401 4981 0 0 26.08.05 00:00
5588 Wenn Hochzeiter und Braut beisammen sind, ... -0.9390 410 4980 0 0 26.08.05 00:00
5589 Männer verschweigen fremde, Weiber eigene Geheimnisse. ... -0.9229 402 4978 7 0 26.08.05 00:00
5590 Selbstverstümmelung ist der einzige Weg zur Erleuchtung! ... -0.8770 439 4975 1 7 26.09.07 12:29
5591 Ein fauler Apfel macht zehn. ... -0.9082 403 4975 0 0 26.08.05 00:00
5592 Im Spiegel sieht man die Gestalt, im Wein das Herz. ... -0.9181 403 4975 0 0 26.08.05 00:00
5593 Armut sucht neue Wege. ... -0.8452 420 4972 0 0 26.08.05 00:00
5594 Hätt' ich Glück und guten Wind, ich führ' ... -0.9071 409 4969 0 0 26.08.05 00:00
5595 Schmeichler, Heuchler. ... -0.5833 456 4968 0 0 26.08.05 00:00
5596 Laß die Leute reden und die Hunde bellen. ... -0.8922 408 4968 0 0 26.08.05 00:00
5597 Morgen, morgen, nur nicht heute, sprechen ... -0.9227 401 4968 0 0 26.08.05 00:00
5598 Wie sollen wir die Meere erforschen, wenn ... -0.8325 424 4965 3 4 09.10.07 18:28
5599 Warten vexiert. ... -0.9084 404 4965 0 4 26.08.05 00:00
5600 Glück fragt nicht nach Recht. ... -0.9030 402 4959 1 0 26.08.05 00:00

[Favoriten] [Punkte] [Bewertungen] [Aufrufe] [Mails] [Kommentare] [Datum]

Seite 112 von 349 |< · < · [1] [2] [3] [4] [5] [6] [7] [8] [9] [10] [11] [12] [13] [14] [15] [16] [17] [18] [19] [20] [21] [22] [23] [24] [25] [26] [27] [28] [29] [30] [31] [32] [33] [34] [35] [36] [37] [38] [39] [40] [41] [42] [43] [44] [45] [46] [47] [48] [49] [50] [51] [52] [53] [54] [55] [56] [57] [58] [59] [60] [61] [62] [63] [64] [65] [66] [67] [68] [69] [70] [71] [72] [73] [74] [75] [76] [77] [78] [79] [80] [81] [82] [83] [84] [85] [86] [87] [88] [89] [90] [91] [92] [93] [94] [95] [96] [97] [98] [99] [100] [101] [102] [103] [104] [105] [106] [107] [108] [109] [110] [111] [112] [113] [114] [115] [116] [117] [118] [119] [120] [121] [122] [123] [124] [125] [126] [127] [128] [129] [130] [131] [132] [133] [134] [135] [136] [137] [138] [139] [140] [141] [142] [143] [144] [145] [146] [147] [148] [149] [150] [151] [152] [153] [154] [155] [156] [157] [158] [159] [160] [161] [162] [163] [164] [165] [166] [167] [168] [169] [170] [171] [172] [173] [174] [175] [176] [177] [178] [179] [180] [181] [182] [183] [184] [185] [186] [187] [188] [189] [190] [191] [192] [193] [194] [195] [196] [197] [198] [199] [200] [201] [202] [203] [204] [205] [206] [207] [208] [209] [210] [211] [212] [213] [214] [215] [216] [217] [218] [219] [220] [221] [222] [223] [224] [225] [226] [227] [228] [229] [230] [231] [232] [233] [234] [235] [236] [237] [238] [239] [240] [241] [242] [243] [244] [245] [246] [247] [248] [249] [250] [251] [252] [253] [254] [255] [256] [257] [258] [259] [260] [261] [262] [263] [264] [265] [266] [267] [268] [269] [270] [271] [272] [273] [274] [275] [276] [277] [278] [279] [280] [281] [282] [283] [284] [285] [286] [287] [288] [289] [290] [291] [292] [293] [294] [295] [296] [297] [298] [299] [300] [301] [302] [303] [304] [305] [306] [307] [308] [309] [310] [311] [312] [313] [314] [315] [316] [317] [318] [319] [320] [321] [322] [323] [324] [325] [326] [327] [328] [329] [330] [331] [332] [333] [334] [335] [336] [337] [338] [339] [340] [341] [342] [343] [344] [345] [346] [347] [348] [349] · > · >|

Zuletzt gesucht